Alto, Michigan
Current Conditions -  °F | °C
As of 11:53 AM on Friday 19 Dec 2014 (Local Time) from KGRR Reporting Station
Few Clouds Few Clouds  
Wind Chill: 28°   Ceiling: Unl
Heat Index: 28°   Visibility: 10mi
Dew Point: 19°   Wind: 3mph
Humidity: 69%   Direction: 130°SE
Pressure: 30.27"   Gusts: NA
Location:  42.86°N, 85.38°W
Report Text: KGRR 191653Z 13003KT 10SM FEW019 M02/M07 A3027 RMK AO2 SLP262 T10221072
Loading
Personal Weather Stations






























Interactive Weather Map New forecast layout! Learn more

10-Day Weather Forecast

Advertisements
Track Severe Weather on mobile